Time;durP1;ratioP1;P1;durP2;ratioP2;P2;SDS_P1;SDS_P2;PMS_P1;PMS_P2;Temp;Humidity;BMP_temperature;BMP_pressure;BME280_temperature;BME280_humidity;BME280_pressure;Samples;Min_cycle;Max_cycle;Signal;HPM_P1;HPM_P2
2023/09/03 00:00:49;;;;;;;3.42;2.40;;;18.00;75.10;;;;;;5054810;28;20366;-75
2023/09/03 00:03:15;;;;;;;3.78;2.78;;;17.90;75.60;;;;;;5054730;28;20027;-76
2023/09/03 00:05:49;;;;;;;2.83;2.40;;;17.80;75.90;;;;;;5054592;28;20028;-74
2023/09/03 00:08:14;;;;;;;3.03;2.50;;;17.80;76.00;;;;;;5054419;28;20021;-72
2023/09/03 00:10:40;;;;;;;7.80;2.60;;;17.70;76.40;;;;;;5054223;28;20037;-74
2023/09/03 00:13:06;;;;;;;7.80;2.58;;;17.50;76.70;;;;;;5054576;28;20056;-74
2023/09/03 00:15:31;;;;;;;5.13;2.33;;;17.50;77.00;;;;;;5054645;28;20021;-76
2023/09/03 00:17:57;;;;;;;3.47;2.83;;;17.40;77.30;;;;;;5054703;28;20032;-74
2023/09/03 00:20:23;;;;;;;7.30;3.85;;;17.30;77.50;;;;;;5055428;28;20017;-73
2023/09/03 00:22:48;;;;;;;5.10;2.78;;;17.30;77.80;;;;;;5055576;28;20386;-73
2023/09/03 00:25:14;;;;;;;6.45;2.90;;;17.20;77.80;;;;;;5055432;28;20017;-75
2023/09/03 00:27:39;;;;;;;4.63;2.92;;;17.20;78.00;;;;;;5055429;28;20114;-74
2023/09/03 00:30:05;;;;;;;8.75;2.25;;;17.20;78.00;;;;;;5055213;28;20024;-74
2023/09/03 00:32:31;;;;;;;2.67;2.20;;;17.20;78.30;;;;;;5055169;28;20060;-72
2023/09/03 00:34:58;;;;;;;6.65;2.90;;;17.20;78.40;;;;;;5055314;28;20056;-73
2023/09/03 00:37:23;;;;;;;5.10;2.85;;;17.20;78.30;;;;;;5055211;28;20025;-72
2023/09/03 00:39:49;;;;;;;5.80;3.00;;;17.20;78.30;;;;;;5055196;28;20029;-74
2023/09/03 00:42:14;;;;;;;3.00;2.65;;;17.20;78.20;;;;;;5055156;28;20021;-73
2023/09/03 00:44:40;;;;;;;2.88;2.28;;;17.10;78.40;;;;;;5055234;28;20403;-73
2023/09/03 00:47:05;;;;;;;4.60;2.55;;;17.10;78.60;;;;;;5055426;28;20021;-73
2023/09/03 00:49:31;;;;;;;4.43;2.30;;;17.00;78.60;;;;;;5055333;28;20052;-74
2023/09/03 00:51:57;;;;;;;4.15;2.30;;;17.00;78.80;;;;;;5069723;28;20044;-74
2023/09/03 00:54:23;;;;;;;6.63;2.50;;;17.00;78.90;;;;;;5074774;28;20032;-73
2023/09/03 00:56:53;;;;;;;3.05;2.60;;;17.00;79.10;;;;;;5074896;28;20047;-73
2023/09/03 00:59:19;;;;;;;4.07;2.78;;;17.00;78.80;;;;;;5074506;28;20108;-73
2023/09/03 01:01:46;;;;;;;3.28;2.67;;;17.00;78.80;;;;;;5074997;28;20079;-74
2023/09/03 01:04:11;;;;;;;7.22;2.60;;;17.00;78.80;;;;;;5073772;28;20020;-74
2023/09/03 01:06:37;;;;;;;4.18;2.35;;;17.00;78.60;;;;;;5074787;28;20028;-73
2023/09/03 01:09:02;;;;;;;3.78;2.53;;;17.00;78.60;;;;;;5074561;28;20497;-74
2023/09/03 01:11:44;;;;;;;2.95;2.30;;;16.90;79.10;;;;;;5074321;28;20048;-72
2023/09/03 01:14:19;;;;;;;2.90;2.30;;;16.90;79.10;;;;;;5074522;28;20016;-74
2023/09/03 01:17:02;;;;;;;3.67;2.17;;;16.90;79.10;;;;;;5074268;28;20038;-74
2023/09/03 01:19:52;;;;;;;3.38;2.17;;;16.90;79.20;;;;;;5074458;28;20036;-73
2023/09/03 01:22:38;;;;;;;3.33;2.53;;;16.90;79.20;;;;;;5074362;28;20028;-74
2023/09/03 01:25:18;;;;;;;4.00;2.47;;;16.90;79.10;;;;;;5074338;28;20084;-73
2023/09/03 01:28:00;;;;;;;4.05;2.00;;;16.90;79.20;;;;;;5074232;28;20031;-73
2023/09/03 01:30:26;;;;;;;4.88;2.40;;;16.80;79.40;;;;;;5074180;28;20017;-74
2023/09/03 01:32:52;;;;;;;8.43;2.58;;;16.80;79.60;;;;;;5074184;28;20024;-73
2023/09/03 01:35:20;;;;;;;3.00;2.33;;;16.70;79.90;;;;;;5074139;28;20029;-73
2023/09/03 01:37:46;;;;;;;4.57;2.70;;;16.70;80.00;;;;;;5074090;28;20020;-74
2023/09/03 01:40:12;;;;;;;2.67;2.40;;;16.80;79.80;;;;;;5073935;28;20489;-74
2023/09/03 01:42:37;;;;;;;4.28;2.20;;;16.80;79.60;;;;;;5073962;28;20024;-73
2023/09/03 01:45:04;;;;;;;6.25;2.45;;;16.80;79.50;;;;;;5073936;28;20032;-73
2023/09/03 01:47:55;;;;;;;3.28;2.28;;;16.80;79.50;;;;;;5073764;28;20035;-73
2023/09/03 01:50:31;;;;;;;4.30;2.40;;;16.70;79.70;;;;;;5067098;28;20032;-75
2023/09/03 01:53:09;;;;;;;7.57;3.22;;;16.70;79.90;;;;;;5073694;28;20093;-74
2023/09/03 01:55:38;;;;;;;3.70;2.20;;;16.70;80.00;;;;;;5073742;28;20020;-76
2023/09/03 01:58:07;;;;;;;3.55;2.70;;;16.70;80.00;;;;;;5073740;28;20020;-76
2023/09/03 02:00:33;;;;;;;3.58;2.40;;;16.70;79.80;;;;;;5072805;28;20085;-75
2023/09/03 02:03:01;;;;;;;3.85;2.55;;;16.70;79.70;;;;;;5073646;28;20024;-76
2023/09/03 02:05:26;;;;;;;2.33;2.00;;;16.60;79.80;;;;;;5073606;28;20518;-75
2023/09/03 02:07:52;;;;;;;5.85;2.47;;;16.70;80.70;;;;;;5073533;28;20115;-75
2023/09/03 02:10:17;;;;;;;4.00;2.38;;;16.60;80.00;;;;;;5073222;28;20058;-75
2023/09/03 02:12:43;;;;;;;3.20;2.50;;;16.70;80.00;;;;;;5073398;28;20031;-76
2023/09/03 02:15:09;;;;;;;3.58;2.30;;;16.70;80.10;;;;;;5073163;28;20035;-73
2023/09/03 02:17:34;;;;;;;2.67;2.25;;;16.60;80.00;;;;;;5073626;28;20024;-73
2023/09/03 02:20:00;;;;;;;3.30;2.42;;;16.60;79.60;;;;;;5073131;28;20359;-74
2023/09/03 02:22:25;;;;;;;3.83;2.15;;;16.50;79.90;;;;;;5072389;28;20356;-74
2023/09/03 02:24:51;;;;;;;5.60;2.22;;;16.40;80.10;;;;;;5073334;28;20032;-72
2023/09/03 02:27:17;;;;;;;4.95;2.30;;;16.30;80.50;;;;;;5073110;28;20471;-75
2023/09/03 02:29:42;;;;;;;3.65;2.20;;;16.30;80.70;;;;;;5071837;28;20048;-73
2023/09/03 02:32:08;;;;;;;3.28;2.30;;;16.40;80.70;;;;;;5072946;28;20028;-75
2023/09/03 02:34:36;;;;;;;3.33;2.10;;;16.40;80.70;;;;;;5073091;28;20013;-75
2023/09/03 02:37:03;;;;;;;4.07;2.40;;;16.40;80.50;;;;;;5073160;28;20028;-74
2023/09/03 02:39:28;;;;;;;3.80;2.30;;;16.40;80.50;;;;;;5072998;28;20044;-75
2023/09/03 02:41:54;;;;;;;3.75;2.30;;;16.20;81.20;;;;;;5071932;28;20053;-74
2023/09/03 02:44:20;;;;;;;5.28;2.55;;;16.20;81.40;;;;;;5073034;28;20107;-75
2023/09/03 02:46:45;;;;;;;3.85;2.30;;;16.30;81.50;;;;;;5072992;28;20025;-74
2023/09/03 02:49:11;;;;;;;4.65;2.63;;;16.30;81.40;;;;;;5072932;28;20514;-76
2023/09/03 02:51:39;;;;;;;2.85;2.03;;;16.40;81.20;;;;;;5072669;28;20037;-76
2023/09/03 02:54:05;;;;;;;13.55;9.73;;;16.40;81.00;;;;;;5072956;28;20035;-73
2023/09/03 02:56:32;;;;;;;6.57;5.88;;;16.40;80.60;;;;;;5072830;28;20024;-76
2023/09/03 02:58:57;;;;;;;5.30;2.85;;;16.40;80.50;;;;;;5072678;28;20067;-76
2023/09/03 03:01:23;;;;;;;3.40;2.17;;;16.40;80.40;;;;;;5072437;28;20052;-76
2023/09/03 03:03:49;;;;;;;2.78;2.30;;;16.30;80.50;;;;;;5071910;28;20051;-75
2023/09/03 03:06:15;;;;;;;2.75;2.08;;;16.30;80.80;;;;;;5072742;28;20099;-76
2023/09/03 03:08:42;;;;;;;5.50;2.33;;;16.30;80.90;;;;;;5072558;28;20501;-76
2023/09/03 03:11:15;;;;;;;2.60;2.30;;;16.30;81.00;;;;;;5072400;28;20057;-76
2023/09/03 03:13:42;;;;;;;3.47;2.40;;;16.20;81.00;;;;;;5072783;28;20024;-76
2023/09/03 03:16:10;;;;;;;5.78;2.65;;;16.20;82.10;;;;;;5072756;28;20398;-75
2023/09/03 03:18:37;;;;;;;4.22;2.33;;;16.20;81.50;;;;;;5072762;28;20031;-76
2023/09/03 03:21:08;;;;;;;4.32;2.50;;;16.20;81.50;;;;;;5072619;28;20104;-76
2023/09/03 03:23:35;;;;;;;2.85;2.40;;;16.20;81.30;;;;;;5072847;28;20024;-76
2023/09/03 03:26:01;;;;;;;3.72;2.10;;;16.30;81.10;;;;;;5072616;28;20020;-76
2023/09/03 03:28:27;;;;;;;3.25;2.22;;;16.30;80.90;;;;;;5076308;28;20185;-75
2023/09/03 03:30:53;;;;;;;4.63;2.30;;;16.30;80.80;;;;;;5075276;28;20036;-75
2023/09/03 03:33:18;;;;;;;4.43;2.30;;;16.30;81.00;;;;;;5076534;28;20025;-76
2023/09/03 03:35:44;;;;;;;4.40;2.22;;;16.20;81.00;;;;;;5076461;28;20671;-76
2023/09/03 03:38:10;;;;;;;3.00;2.63;;;16.10;81.60;;;;;;5076456;28;20073;-76
2023/09/03 03:40:35;;;;;;;3.08;2.63;;;16.10;81.90;;;;;;5076281;28;20021;-73
2023/09/03 03:43:01;;;;;;;3.30;2.20;;;16.10;82.80;;;;;;5076329;28;20032;-72
2023/09/03 03:45:26;;;;;;;5.45;2.50;;;16.00;82.20;;;;;;5076444;28;20024;-75
2023/09/03 03:47:52;;;;;;;2.08;1.92;;;16.00;82.40;;;;;;5076193;28;20035;-74
2023/09/03 03:50:17;;;;;;;2.97;2.30;;;16.00;82.30;;;;;;5075861;28;20108;-74
2023/09/03 03:52:43;;;;;;;3.53;2.72;;;16.10;82.20;;;;;;5074689;28;20024;-73
2023/09/03 03:55:08;;;;;;;4.13;2.53;;;16.10;82.10;;;;;;5076087;28;20020;-75
2023/09/03 03:57:34;;;;;;;9.38;2.80;;;16.10;82.20;;;;;;5075989;28;20081;-73
2023/09/03 03:59:59;;;;;;;4.53;2.28;;;16.00;82.10;;;;;;5075970;28;20025;-75
2023/09/03 04:02:25;;;;;;;3.63;2.67;;;16.00;82.30;;;;;;5076004;28;20029;-76
2023/09/03 04:04:54;;;;;;;4.43;2.33;;;16.00;82.60;;;;;;5074836;28;20028;-74
2023/09/03 04:07:20;;;;;;;3.05;2.47;;;15.90;83.00;;;;;;5074593;28;20049;-74
2023/09/03 04:09:45;;;;;;;3.38;2.30;;;15.90;83.10;;;;;;5074561;28;20080;-73
2023/09/03 04:12:11;;;;;;;4.53;2.30;;;15.90;83.10;;;;;;5075763;28;20465;-74
2023/09/03 04:14:37;;;;;;;3.10;2.28;;;15.90;83.10;;;;;;5074419;28;20020;-74
2023/09/03 04:17:03;;;;;;;3.17;2.38;;;16.00;83.00;;;;;;5075512;28;20482;-71
2023/09/03 04:19:29;;;;;;;3.05;2.40;;;16.00;82.80;;;;;;5074302;28;20024;-75
2023/09/03 04:21:54;;;;;;;3.28;1.98;;;16.00;82.70;;;;;;5074541;28;20500;-74
2023/09/03 04:24:20;;;;;;;3.00;2.67;;;16.10;82.50;;;;;;5075466;28;20386;-75
2023/09/03 04:26:45;;;;;;;3.47;2.50;;;16.10;82.40;;;;;;5075360;28;20428;-74
2023/09/03 04:29:11;;;;;;;3.88;2.28;;;16.10;82.20;;;;;;5075425;28;20024;-75
2023/09/03 04:31:36;;;;;;;3.50;2.42;;;16.20;81.80;;;;;;5075433;28;20429;-74
2023/09/03 04:34:02;;;;;;;3.92;2.30;;;16.00;81.80;;;;;;5075418;28;20032;-72
2023/09/03 04:36:28;;;;;;;2.60;2.03;;;15.90;82.20;;;;;;5074073;28;20032;-74
2023/09/03 04:38:54;;;;;;;2.25;2.05;;;15.80;82.30;;;;;;5075366;28;20027;-75
2023/09/03 04:41:19;;;;;;;3.08;2.60;;;15.90;82.80;;;;;;5075410;28;20024;-74
2023/09/03 04:43:45;;;;;;;3.05;2.25;;;15.80;82.80;;;;;;5073813;28;20031;-74
2023/09/03 04:46:10;;;;;;;4.05;2.22;;;15.80;82.80;;;;;;5075248;28;20028;-74
2023/09/03 04:48:36;;;;;;;3.95;2.28;;;15.80;82.80;;;;;;5080107;28;20020;-73
2023/09/03 04:51:03;;;;;;;3.28;2.33;;;15.90;82.80;;;;;;5084859;28;20036;-74
2023/09/03 04:53:30;;;;;;;3.40;2.50;;;15.80;82.80;;;;;;5081241;28;20016;-74
2023/09/03 04:55:55;;;;;;;5.03;2.85;;;15.90;82.90;;;;;;5075294;28;20505;-73
2023/09/03 04:58:20;;;;;;;2.67;2.30;;;15.90;82.70;;;;;;5075097;28;20024;-72
2023/09/03 05:00:46;;;;;;;3.33;2.70;;;16.00;82.70;;;;;;5075214;28;20029;-72
2023/09/03 05:03:11;;;;;;;3.80;2.50;;;16.00;83.20;;;;;;5074771;28;20033;-72
2023/09/03 05:05:41;;;;;;;3.03;2.20;;;16.00;82.20;;;;;;5074932;28;20487;-72
2023/09/03 05:08:10;;;;;;;4.43;3.00;;;16.10;82.20;;;;;;5074912;28;20036;-72
2023/09/03 05:10:36;;;;;;;3.75;2.10;;;16.10;81.90;;;;;;5075638;28;20170;-71
2023/09/03 05:13:06;;;;;;;2.75;2.05;;;16.10;82.00;;;;;;5075509;28;20103;-73
2023/09/03 05:15:32;;;;;;;4.88;2.20;;;16.20;82.00;;;;;;5075578;28;20043;-72
2023/09/03 05:17:58;;;;;;;4.63;2.47;;;16.20;81.90;;;;;;5074808;28;20679;-72
2023/09/03 05:20:23;;;;;;;2.55;2.22;;;16.20;81.70;;;;;;5074708;28;20020;-71
2023/09/03 05:22:49;;;;;;;4.32;2.50;;;16.20;81.50;;;;;;5074643;28;20103;-71
2023/09/03 05:25:14;;;;;;;4.88;2.40;;;16.20;81.50;;;;;;5074561;28;20111;-71
2023/09/03 05:27:40;;;;;;;4.00;2.50;;;16.20;81.50;;;;;;5074455;28;20056;-72
2023/09/03 05:30:06;;;;;;;2.92;2.35;;;16.20;81.70;;;;;;5074434;28;20045;-72
2023/09/03 05:32:31;;;;;;;4.22;2.70;;;16.20;81.70;;;;;;5074384;28;20463;-72
2023/09/03 05:34:57;;;;;;;4.40;2.53;;;16.30;81.70;;;;;;5073270;28;20040;-72
2023/09/03 05:37:22;;;;;;;3.70;2.47;;;16.30;81.60;;;;;;5072796;28;20024;-73
2023/09/03 05:39:49;;;;;;;4.68;2.50;;;16.40;81.50;;;;;;5074246;28;20027;-73
2023/09/03 05:42:15;;;;;;;5.38;2.78;;;16.50;81.40;;;;;;5074444;28;20025;-73
2023/09/03 05:44:40;;;;;;;2.53;2.15;;;16.50;80.90;;;;;;5074070;28;20051;-73
2023/09/03 05:47:06;;;;;;;2.78;2.40;;;16.60;80.70;;;;;;5072812;28;20016;-74
2023/09/03 05:49:31;;;;;;;2.78;2.10;;;16.70;80.30;;;;;;5073492;28;20378;-71
2023/09/03 05:51:57;;;;;;;3.20;2.22;;;16.80;80.00;;;;;;5073894;28;20490;-71
2023/09/03 05:54:22;;;;;;;2.05;1.85;;;16.90;79.70;;;;;;5073681;28;20021;-73
2023/09/03 05:56:48;;;;;;;3.33;2.38;;;17.00;79.40;;;;;;5073858;28;20032;-72
2023/09/03 05:59:14;;;;;;;4.97;2.47;;;17.10;78.80;;;;;;5073944;28;20527;-72
2023/09/03 06:01:40;;;;;;;3.80;2.40;;;17.20;78.60;;;;;;5074110;28;20517;-73
2023/09/03 06:04:09;;;;;;;4.38;2.30;;;17.20;78.30;;;;;;5073826;28;20108;-74
2023/09/03 06:06:39;;;;;;;3.35;2.10;;;17.30;78.30;;;;;;5073592;28;20024;-74
2023/09/03 06:09:06;;;;;;;3.45;2.42;;;17.40;78.20;;;;;;5073871;28;20059;-76
2023/09/03 06:11:33;;;;;;;5.35;2.15;;;17.50;78.00;;;;;;5072587;28;20216;-76
2023/09/03 06:13:58;;;;;;;4.20;2.22;;;17.50;77.70;;;;;;5077446;28;20031;-76
2023/09/03 06:16:25;;;;;;;3.05;2.30;;;17.60;77.60;;;;;;5073988;28;20029;-76
2023/09/03 06:18:50;;;;;;;3.03;2.13;;;17.70;77.50;;;;;;5073523;28;20021;-71
2023/09/03 06:21:16;;;;;;;3.30;2.35;;;17.80;77.10;;;;;;5073501;28;20024;-73
2023/09/03 06:23:41;;;;;;;3.22;2.20;;;18.00;76.70;;;;;;5073279;28;20095;-73
2023/09/03 06:26:07;;;;;;;2.63;2.38;;;18.10;76.60;;;;;;5072191;28;20024;-73
2023/09/03 06:28:33;;;;;;;3.10;2.03;;;18.30;76.40;;;;;;5073346;28;20067;-74
2023/09/03 06:31:00;;;;;;;2.90;2.30;;;18.40;76.20;;;;;;5073788;28;20064;-74
2023/09/03 06:33:25;;;;;;;2.20;2.00;;;18.40;75.90;;;;;;5073302;28;20090;-75
2023/09/03 06:35:51;;;;;;;3.85;2.50;;;18.50;75.80;;;;;;5073230;28;20470;-74
2023/09/03 06:38:16;;;;;;;4.93;3.10;;;18.50;75.80;;;;;;5073231;28;20028;-74
2023/09/03 06:40:42;;;;;;;4.72;2.90;;;18.50;75.60;;;;;;5073064;28;20067;-74
2023/09/03 06:43:07;;;;;;;5.35;2.80;;;18.30;77.10;;;;;;5072965;28;20486;-76
2023/09/03 06:45:33;;;;;;;3.35;2.72;;;18.30;77.50;;;;;;5071439;28;20478;-75
2023/09/03 06:47:58;;;;;;;2.50;2.30;;;18.30;76.70;;;;;;5073312;28;20017;-75
2023/09/03 06:50:24;;;;;;;4.22;2.70;;;18.40;76.60;;;;;;5073288;28;20025;-75
2023/09/03 06:52:49;;;;;;;4.30;2.95;;;18.50;76.40;;;;;;5073019;28;20028;-74
2023/09/03 06:55:15;;;;;;;3.45;2.75;;;18.60;76.00;;;;;;5073096;28;20074;-74
2023/09/03 06:57:40;;;;;;;3.40;2.78;;;18.90;75.60;;;;;;5071726;28;20131;-75
2023/09/03 07:00:07;;;;;;;3.20;2.42;;;19.00;74.90;;;;;;5072963;28;20040;-76
2023/09/03 07:02:32;;;;;;;3.92;2.17;;;19.10;74.60;;;;;;5072166;28;20025;-76
2023/09/03 07:04:59;;;;;;;3.17;2.35;;;19.30;75.20;;;;;;5073332;28;20107;-76
2023/09/03 07:07:26;;;;;;;3.17;2.50;;;19.40;73.80;;;;;;5073281;28;20017;-75
2023/09/03 07:09:52;;;;;;;3.35;2.58;;;19.60;73.50;;;;;;5073025;28;20482;-73
2023/09/03 07:12:25;;;;;;;11.88;4.47;;;19.70;73.30;;;;;;5073065;28;20152;-75
2023/09/03 07:14:51;;;;;;;8.40;3.97;;;19.90;73.60;;;;;;5073313;28;20454;-73
2023/09/03 07:17:17;;;;;;;5.78;3.05;;;20.10;73.20;;;;;;5073380;28;20036;-75
2023/09/03 07:19:42;;;;;;;4.80;2.40;;;20.30;72.00;;;;;;5072947;28;20091;-74
2023/09/03 07:22:08;;;;;;;2.72;2.30;;;20.50;71.20;;;;;;5073024;28;20029;-77
2023/09/03 07:24:34;;;;;;;5.00;2.28;;;20.60;70.40;;;;;;5072741;28;20029;-76
2023/09/03 07:26:59;;;;;;;4.75;2.47;;;20.70;69.60;;;;;;5072564;28;20112;-78
2023/09/03 07:29:25;;;;;;;2.63;2.03;;;20.90;69.10;;;;;;5073176;28;20029;-74
2023/09/03 07:31:51;;;;;;;4.68;1.83;;;21.00;68.30;;;;;;5075181;28;20033;-77
2023/09/03 07:34:16;;;;;;;3.83;2.40;;;21.10;68.40;;;;;;5075304;28;20013;-76
2023/09/03 07:36:42;;;;;;;4.38;2.80;;;21.20;68.10;;;;;;5072524;28;20368;-76
2023/09/03 07:39:11;;;;;;;4.50;2.58;;;21.30;67.50;;;;;;5071493;28;20027;-77
2023/09/03 07:41:38;;;;;;;6.65;2.50;;;21.40;67.10;;;;;;5071228;28;20028;-75
2023/09/03 07:44:04;;;;;;;2.80;2.42;;;21.60;66.70;;;;;;5072307;28;20021;-80
2023/09/03 07:46:30;;;;;;;6.18;2.30;;;21.70;66.40;;;;;;5072632;28;20028;-76
2023/09/03 07:48:56;;;;;;;4.18;2.65;;;21.80;65.60;;;;;;5072389;28;20097;-76
2023/09/03 07:51:22;;;;;;;4.97;3.00;;;22.00;65.20;;;;;;5072227;28;20470;-76
2023/09/03 07:53:48;;;;;;;2.60;2.03;;;21.80;64.20;;;;;;5072114;28;20113;-76
2023/09/03 07:56:17;;;;;;;4.95;2.22;;;21.60;65.60;;;;;;5072440;28;20099;-77
2023/09/03 07:58:43;;;;;;;3.83;2.85;;;21.60;65.30;;;;;;5072191;28;20059;-78
2023/09/03 08:01:14;;;;;;;6.80;2.83;;;21.80;65.40;;;;;;5072476;28;20539;-75
2023/09/03 08:03:40;;;;;;;4.63;2.67;;;21.80;65.30;;;;;;5072138;28;20052;-75
2023/09/03 08:06:07;;;;;;;2.50;2.30;;;21.70;65.70;;;;;;5072183;28;20059;-75
2023/09/03 08:08:32;;;;;;;2.65;2.25;;;21.70;65.50;;;;;;5070760;28;20052;-74
2023/09/03 08:10:59;;;;;;;4.15;2.25;;;21.70;65.80;;;;;;5071752;28;20457;-74
2023/09/03 08:13:24;;;;;;;2.55;2.35;;;21.80;65.50;;;;;;5073473;28;20028;-75
2023/09/03 08:15:50;;;;;;;3.95;2.50;;;21.80;65.70;;;;;;5075349;28;20099;-76
2023/09/03 08:18:16;;;;;;;3.90;2.00;;;21.80;66.00;;;;;;5075852;28;20056;-74
2023/09/03 08:20:42;;;;;;;3.72;2.22;;;22.00;66.30;;;;;;5076200;28;20040;-79
2023/09/03 08:23:11;;;;;;;3.08;2.55;;;21.90;66.40;;;;;;5073290;28;20028;-74
2023/09/03 08:25:37;;;;;;;3.35;2.65;;;22.00;66.30;;;;;;5055810;28;20024;-76
2023/09/03 08:28:03;;;;;;;4.95;2.97;;;22.00;66.60;;;;;;5054140;28;20091;-76
2023/09/03 08:30:28;;;;;;;3.42;2.58;;;22.00;67.00;;;;;;5054981;28;20028;-75
2023/09/03 08:32:54;;;;;;;5.35;2.85;;;21.90;66.80;;;;;;5055240;28;20056;-76
2023/09/03 08:35:19;;;;;;;4.05;2.40;;;22.00;67.10;;;;;;5055202;28;20036;-76
2023/09/03 08:37:45;;;;;;;3.08;2.30;;;21.90;66.70;;;;;;5055348;28;20514;-75
2023/09/03 08:40:11;;;;;;;4.70;2.55;;;22.10;66.50;;;;;;5055621;28;20021;-74
2023/09/03 08:42:40;;;;;;;5.78;2.60;;;22.20;66.50;;;;;;5055713;28;20043;-74
2023/09/03 08:45:10;;;;;;;2.90;2.33;;;22.10;66.30;;;;;;5055279;28;20032;-75
2023/09/03 08:47:44;;;;;;;3.88;2.70;;;22.20;66.90;;;;;;5055167;28;20098;-75
2023/09/03 08:50:10;;;;;;;3.80;2.47;;;22.30;66.90;;;;;;5053917;28;20032;-73
2023/09/03 08:52:38;;;;;;;4.07;2.72;;;22.50;66.70;;;;;;5056296;28;20044;-77
2023/09/03 08:55:06;;;;;;;4.15;2.42;;;22.50;66.00;;;;;;5055608;28;20025;-73
2023/09/03 08:57:34;;;;;;;5.35;2.45;;;22.60;66.00;;;;;;5055286;28;20024;-77
2023/09/03 09:00:07;;;;;;;3.42;2.67;;;22.60;65.70;;;;;;5053921;28;20029;-74
2023/09/03 09:02:34;;;;;;;4.65;2.50;;;22.70;65.40;;;;;;5054763;28;20021;-77
2023/09/03 09:05:02;;;;;;;3.88;2.75;;;22.80;65.70;;;;;;5054999;28;20025;-76
2023/09/03 09:07:27;;;;;;;6.25;2.80;;;22.90;64.80;;;;;;5054977;28;20017;-76
2023/09/03 09:09:58;;;;;;;3.85;2.25;;;23.10;63.80;;;;;;5054689;28;20049;-76
2023/09/03 09:12:46;;;;;;;4.10;2.08;;;23.10;62.80;;;;;;5054566;28;20043;-77
2023/09/03 09:15:12;;;;;;;3.17;2.38;;;23.20;62.60;;;;;;5054890;28;20104;-75
2023/09/03 09:17:38;;;;;;;5.32;2.20;;;23.50;62.20;;;;;;5054303;28;20086;-77
2023/09/03 09:20:15;;;;;;;4.15;2.30;;;23.70;60.80;;;;;;5054635;28;20017;-77
2023/09/03 09:22:45;;;;;;;5.72;1.90;;;23.90;58.90;;;;;;5053198;28;20017;-74
2023/09/03 09:25:26;;;;;;;4.07;2.13;;;24.10;58.80;;;;;;5053577;28;20039;-75
2023/09/03 09:27:53;;;;;;;6.03;2.00;;;24.30;58.00;;;;;;5054594;28;20028;-78
2023/09/03 09:30:21;;;;;;;1.98;1.77;;;24.50;58.70;;;;;;5054210;28;20033;-76
2023/09/03 09:32:46;;;;;;;4.20;2.33;;;24.70;58.40;;;;;;5054779;28;20037;-80
2023/09/03 09:35:25;;;;;;;2.58;2.00;;;24.50;57.60;;;;;;5054409;28;20420;-79
2023/09/03 09:37:51;;;;;;;3.55;2.42;;;24.50;58.70;;;;;;5054650;28;20051;-79
2023/09/03 09:40:27;;;;;;;3.20;2.10;;;24.50;59.00;;;;;;5054355;28;20475;-73
2023/09/03 09:42:55;;;;;;;2.50;2.30;;;24.40;59.00;;;;;;5054269;28;20159;-75
2023/09/03 09:45:21;;;;;;;5.93;2.53;;;24.50;58.60;;;;;;5054139;28;20069;-77
2023/09/03 09:48:01;;;;;;;2.33;2.08;;;24.50;59.40;;;;;;5054105;28;20126;-76
2023/09/03 09:50:34;;;;;;;2.45;2.20;;;24.70;59.20;;;;;;5054075;28;20379;-75
2023/09/03 09:53:00;;;;;;;3.53;2.10;;;24.90;58.60;;;;;;5052784;28;20119;-73
2023/09/03 09:55:29;;;;;;;2.47;2.28;;;25.00;58.70;;;;;;5054160;28;20115;-72
2023/09/03 09:57:55;;;;;;;4.20;2.30;;;25.20;57.90;;;;;;5053984;28;20031;-73
2023/09/03 10:00:33;;;;;;;2.72;2.15;;;25.30;57.00;;;;;;5053941;28;20013;-80
2023/09/03 10:02:58;;;;;;;2.58;2.22;;;25.50;56.90;;;;;;5053923;28;20390;-78
2023/09/03 10:05:24;;;;;;;2.47;2.00;;;25.60;56.40;;;;;;5071850;28;20021;-77
2023/09/03 10:07:50;;;;;;;2.30;1.90;;;25.70;56.20;;;;;;5074329;28;20033;-77
2023/09/03 10:10:16;;;;;;;3.70;2.00;;;25.90;55.20;;;;;;5059810;28;20064;-75
2023/09/03 10:12:42;;;;;;;3.08;2.17;;;26.10;54.50;;;;;;5054421;28;20116;-74
2023/09/03 10:15:09;;;;;;;1.73;1.63;;;26.20;54.20;;;;;;5053691;28;20065;-76
2023/09/03 10:17:37;;;;;;;3.30;1.92;;;26.20;52.40;;;;;;5053732;28;20028;-79
2023/09/03 10:20:05;;;;;;;2.65;1.63;;;26.30;52.90;;;;;;5053587;28;20075;-74
2023/09/03 10:22:33;;;;;;;2.67;2.08;;;26.50;51.80;;;;;;5052198;28;20028;-75
2023/09/03 10:25:02;;;;;;;2.22;1.77;;;26.80;50.50;;;;;;5052199;28;20029;-73
2023/09/03 10:27:32;;;;;;;1.73;1.60;;;27.00;50.70;;;;;;5051542;28;20024;-73
2023/09/03 10:30:02;;;;;;;2.38;1.40;;;27.30;49.50;;;;;;5051957;28;20036;-75
2023/09/03 10:32:29;;;;;;;5.05;2.38;;;27.30;48.90;;;;;;5052818;28;20086;-73
2023/09/03 10:34:55;;;;;;;2.10;1.52;;;27.20;48.50;;;;;;5053202;28;20025;-73
2023/09/03 10:37:22;;;;;;;2.20;1.63;;;27.10;48.50;;;;;;5053319;28;20395;-74
2023/09/03 10:39:48;;;;;;;2.25;1.48;;;27.20;48.80;;;;;;5053426;28;20025;-73
2023/09/03 10:42:23;;;;;;;2.97;1.75;;;27.30;48.00;;;;;;5053191;28;20051;-72
2023/09/03 10:44:53;;;;;;;2.35;1.30;;;26.90;48.10;;;;;;5053609;28;20053;-75
2023/09/03 10:47:19;;;;;;;3.88;1.80;;;26.80;48.30;;;;;;5052955;28;20025;-73
2023/09/03 10:49:47;;;;;;;2.35;1.30;;;26.70;48.90;;;;;;5052056;28;20032;-73
2023/09/03 10:52:28;;;;;;;2.15;1.40;;;26.80;48.80;;;;;;5053019;28;20032;-76
2023/09/03 10:55:21;;;;;;;1.58;1.27;;;26.90;48.40;;;;;;5052178;28;20025;-75
2023/09/03 10:58:08;;;;;;;2.28;1.50;;;27.10;48.40;;;;;;5053610;28;20083;-74
2023/09/03 11:00:34;;;;;;;2.70;1.50;;;27.20;48.10;;;;;;5037859;28;20044;-80
2023/09/03 11:03:17;;;;;;;1.85;1.10;;;27.30;48.40;;;;;;5053110;28;20029;-73
2023/09/03 11:06:18;;;;;;;2.55;1.70;;;27.60;47.70;;;;;;5053072;28;20025;-73
2023/09/03 11:08:45;;;;;;;3.10;1.95;;;27.80;46.10;;;;;;5053166;28;20021;-72
2023/09/03 11:11:18;;;;;;;1.75;1.40;;;27.70;45.60;;;;;;5052208;28;20394;-75
2023/09/03 11:13:49;;;;;;;2.40;1.45;;;27.60;46.50;;;;;;5051515;28;20017;-77
2023/09/03 11:16:15;;;;;;;2.35;1.50;;;27.60;46.50;;;;;;5052768;28;20371;-71
2023/09/03 11:18:47;;;;;;;1.95;1.20;;;27.70;45.40;;;;;;5052956;28;20024;-73
2023/09/03 11:21:13;;;;;;;2.35;1.08;;;27.60;45.60;;;;;;5053024;28;20025;-71
2023/09/03 11:23:39;;;;;;;3.15;1.05;;;27.80;44.90;;;;;;5051297;28;20025;-76
2023/09/03 11:26:12;;;;;;;1.20;0.98;;;28.10;44.90;;;;;;5052640;28;20036;-71
2023/09/03 11:28:38;;;;;;;1.95;1.17;;;28.20;43.90;;;;;;5051851;28;20086;-74
2023/09/03 11:31:03;;;;;;;3.13;1.40;;;28.10;43.90;;;;;;5052713;28;20483;-72
2023/09/03 11:33:29;;;;;;;1.40;1.30;;;28.10;43.60;;;;;;5052459;28;20025;-72
2023/09/03 11:35:55;;;;;;;1.70;1.30;;;28.10;43.80;;;;;;5052655;28;20043;-72
2023/09/03 11:38:24;;;;;;;1.20;1.10;;;28.20;43.90;;;;;;5052664;28;20489;-72
2023/09/03 11:40:55;;;;;;;2.55;1.20;;;28.30;43.90;;;;;;5052640;28;20048;-73
2023/09/03 11:43:20;;;;;;;1.67;1.10;;;28.30;43.20;;;;;;5050769;28;20021;-76
2023/09/03 11:45:46;;;;;;;3.72;1.15;;;28.40;43.30;;;;;;5050628;28;20032;-73
2023/09/03 11:48:12;;;;;;;3.53;1.20;;;28.50;43.30;;;;;;5053303;28;20032;-72
2023/09/03 11:50:37;;;;;;;1.48;0.90;;;28.40;43.90;;;;;;5054124;28;20021;-72
2023/09/03 11:53:08;;;;;;;1.95;1.40;;;28.60;42.60;;;;;;5055857;28;20021;-73
2023/09/03 11:55:40;;;;;;;2.70;1.20;;;28.70;42.60;;;;;;5053617;28;20031;-72
2023/09/03 11:58:07;;;;;;;16.95;14.75;;;28.90;43.10;;;;;;5053142;28;20017;-72
2023/09/03 12:00:34;;;;;;;1.90;1.60;;;29.10;42.90;;;;;;5055839;28;20100;-73
2023/09/03 12:03:01;;;;;;;2.15;1.30;;;29.20;41.30;;;;;;5055846;28;20029;-72
2023/09/03 12:05:27;;;;;;;3.78;1.40;;;28.70;41.40;;;;;;5052076;28;20040;-73
2023/09/03 12:07:53;;;;;;;1.33;0.98;;;28.30;42.60;;;;;;5055530;28;20032;-72
2023/09/03 12:10:19;;;;;;;2.10;1.48;;;28.10;43.40;;;;;;5055368;28;20053;-72
2023/09/03 12:12:45;;;;;;;2.15;1.23;;;28.30;43.90;;;;;;5054285;28;20037;-75
2023/09/03 12:15:19;;;;;;;2.03;1.40;;;28.60;43.30;;;;;;5055486;28;20017;-72
2023/09/03 12:17:44;;;;;;;4.82;1.40;;;28.90;42.80;;;;;;5054331;28;20021;-73
2023/09/03 12:20:34;;;;;;;1.95;1.23;;;29.10;41.70;;;;;;5055651;28;20017;-73
2023/09/03 12:23:12;;;;;;;1.33;1.10;;;29.20;41.20;;;;;;5054598;28;20091;-73
2023/09/03 12:25:39;;;;;;;1.17;0.93;;;29.30;41.60;;;;;;5054758;28;20529;-74
2023/09/03 12:28:05;;;;;;;5.13;1.27;;;29.50;40.20;;;;;;5055478;28;20024;-73
2023/09/03 12:30:53;;;;;;;2.65;1.10;;;29.60;39.80;;;;;;5056173;28;20078;-73
2023/09/03 12:33:18;;;;;;;2.40;1.25;;;29.70;38.80;;;;;;5055864;28;20057;-74
2023/09/03 12:35:44;;;;;;;1.73;1.20;;;29.50;39.70;;;;;;5056066;28;20079;-73
2023/09/03 12:38:10;;;;;;;1.67;1.08;;;29.60;39.60;;;;;;5054513;28;20475;-72
2023/09/03 12:40:36;;;;;;;3.15;1.17;;;29.50;39.20;;;;;;5055472;28;20025;-72
2023/09/03 12:43:02;;;;;;;3.17;1.27;;;29.40;39.50;;;;;;5035581;28;20029;-73
2023/09/03 12:45:27;;;;;;;1.33;1.23;;;29.30;38.60;;;;;;5034540;28;20023;-74
2023/09/03 12:47:53;;;;;;;2.33;1.20;;;28.90;39.00;;;;;;5036491;28;20065;-75